Time;durP1;ratioP1;P1;durP2;ratioP2;P2;SDS_P1;SDS_P2;PMS_P1;PMS_P2;Temp;Humidity;BMP_temperature;BMP_pressure;BME280_temperature;BME280_humidity;BME280_pressure;Samples;Min_cycle;Max_cycle;Signal;HPM_P1;HPM_P2
2022/01/29 00:04:01;;;;;;;56.57;52.43;;;;;;;10.09;100.00;103184.24;1980587;71;39444;-73
2022/01/29 00:09:47;;;;;;;60.13;55.87;;;;;;;9.99;100.00;103181.42;1886045;74;86694;-75
2022/01/29 00:15:31;;;;;;;58.10;54.00;;;;;;;10.04;100.00;103174.66;1875404;74;86259;-76
2022/01/29 00:21:15;;;;;;;58.37;54.43;;;;;;;10.16;100.00;103186.45;1939278;73;86370;-76
2022/01/29 00:27:02;;;;;;;57.17;53.17;;;;;;;10.32;100.00;103190.05;1968296;71;40410;-75
2022/01/29 00:32:46;;;;;;;56.97;52.87;;;;;;;10.39;100.00;103186.70;1889111;74;85127;-73
2022/01/29 00:38:30;;;;;;;55.97;52.17;;;;;;;10.42;100.00;103170.95;1872884;75;85401;-73
2022/01/29 00:44:17;;;;;;;54.30;50.40;;;;;;;10.47;100.00;103171.12;1910109;73;86390;-75
2022/01/29 00:50:01;;;;;;;56.10;52.30;;;;;;;10.53;100.00;103168.80;1979367;71;39761;-72
2022/01/29 00:55:47;;;;;;;56.57;52.67;;;;;;;10.51;100.00;103164.03;1886469;74;86028;-73
2022/01/29 01:01:34;;;;;;;58.07;54.27;;;;;;;10.64;100.00;103173.63;1866535;75;86145;-73
2022/01/29 01:07:17;;;;;;;56.07;52.37;;;;;;;10.73;100.00;103165.84;1909885;73;86577;-73
2022/01/29 01:13:04;;;;;;;57.20;53.50;;;;;;;10.75;100.00;103162.27;1978780;71;39679;-72
2022/01/29 01:18:49;;;;;;;55.40;51.73;;;;;;;10.82;100.00;103154.20;1834203;76;85874;-71
2022/01/29 01:24:31;;;;;;;55.73;51.93;;;;;;;10.91;100.00;103158.34;1877886;73;85663;-72
2022/01/29 01:30:16;;;;;;;59.37;55.47;;;;;;;10.86;100.00;103158.75;1906026;74;85779;-73
2022/01/29 01:36:05;;;;;;;56.60;52.70;;;;;;;10.94;100.00;103152.34;1988014;71;39535;-70
2022/01/29 01:41:55;;;;;;;57.93;54.03;;;;;;;10.94;100.00;103157.91;1847798;76;86498;-73
2022/01/29 01:47:34;;;;;;;56.63;52.73;;;;;;;10.91;100.00;103135.28;1870972;75;86489;-76
2022/01/29 01:53:19;;;;;;;57.43;53.47;;;;;;;10.89;100.00;103153.57;1920102;74;86602;-77
2022/01/29 01:59:04;;;;;;;58.97;55.07;;;;;;;11.00;100.00;103154.72;1986967;71;39539;-74
2022/01/29 02:04:48;;;;;;;57.87;53.97;;;;;;;11.02;100.00;103147.00;1841970;75;85281;-72
2022/01/29 02:10:35;;;;;;;59.57;55.67;;;;;;;11.01;100.00;103138.88;1898929;73;86377;-72
2022/01/29 02:16:19;;;;;;;60.53;56.57;;;;;;;11.01;100.00;103130.53;1902811;73;86045;-72
2022/01/29 02:22:13;;;;;;;58.50;54.50;;;;;;;11.02;100.00;103128.08;1985943;71;45993;-74
2022/01/29 02:27:59;;;;;;;60.77;56.77;;;;;;;11.04;100.00;103123.96;1802123;77;86493;-75
2022/01/29 02:33:44;;;;;;;59.03;55.13;;;;;;;11.05;100.00;103116.47;1889357;74;86303;-70
2022/01/29 02:39:29;;;;;;;61.30;57.50;;;;;;;11.11;100.00;103087.20;1888846;73;86234;-73
2022/01/29 02:45:14;;;;;;;60.37;56.47;;;;;;;11.18;100.00;103086.55;1910709;73;86481;-76
2022/01/29 02:50:58;;;;;;;61.30;57.20;;;;;;;11.28;100.00;103077.66;1909107;73;86106;-76
2022/01/29 02:56:42;;;;;;;62.17;58.17;;;;;;;11.29;100.00;103065.45;1810718;78;86378;-76
2022/01/29 03:02:26;;;;;;;62.67;58.63;;;;;;;11.34;100.00;103054.43;1931123;72;86180;-77
2022/01/29 03:08:09;;;;;;;60.03;56.13;;;;;;;11.32;100.00;103056.62;1930684;71;40197;-75
2022/01/29 03:13:54;;;;;;;62.10;58.20;;;;;;;11.32;100.00;103049.66;1816701;76;85687;-74
2022/01/29 03:19:39;;;;;;;63.10;59.00;;;;;;;11.23;100.00;103034.38;1885478;74;86672;-75
2022/01/29 03:25:23;;;;;;;62.63;58.63;;;;;;;11.14;100.00;103028.84;1914329;73;86416;-74
2022/01/29 03:31:07;;;;;;;64.53;60.43;;;;;;;11.22;100.00;103025.18;1985345;71;39680;-73
2022/01/29 03:36:54;;;;;;;63.63;59.63;;;;;;;11.27;100.00;103025.87;1836468;76;86177;-74
2022/01/29 03:42:43;;;;;;;64.43;60.37;;;;;;;11.24;100.00;103025.81;1873609;75;86056;-74
2022/01/29 03:48:25;;;;;;;63.13;59.20;;;;;;;11.32;100.00;103035.75;1945815;73;86195;-75
2022/01/29 03:54:09;;;;;;;66.97;62.67;;;;;;;11.22;100.00;103024.33;1979916;71;39572;-75
2022/01/29 03:59:54;;;;;;;60.70;56.70;;;;;;;11.21;100.00;103022.09;1835125;76;86713;-75
2022/01/29 04:05:37;;;;;;;58.70;54.80;;;;;;;11.32;100.00;103028.25;1879515;73;86457;-71
2022/01/29 04:11:22;;;;;;;57.07;53.27;;;;;;;11.45;100.00;103013.82;1901993;72;85504;-74
2022/01/29 04:17:07;;;;;;;60.03;56.13;;;;;;;11.47;100.00;103013.88;1974131;71;39719;-73
2022/01/29 04:22:51;;;;;;;62.23;58.20;;;;;;;11.52;100.00;103006.20;1831758;76;86456;-75
2022/01/29 04:28:39;;;;;;;58.10;54.30;;;;;;;11.65;100.00;103006.84;1882850;74;86235;-75
2022/01/29 04:34:22;;;;;;;58.53;54.63;;;;;;;11.63;100.00;103002.61;1901798;74;86355;-75
2022/01/29 04:40:10;;;;;;;59.37;55.47;;;;;;;11.67;100.00;103002.44;1987100;71;39537;-77
2022/01/29 04:45:54;;;;;;;58.57;54.67;;;;;;;11.68;100.00;102990.22;1851682;76;86354;-77
2022/01/29 04:51:38;;;;;;;58.30;54.50;;;;;;;11.64;100.00;102994.53;1902621;73;85487;-73
2022/01/29 04:57:22;;;;;;;62.30;58.20;;;;;;;11.66;100.00;102994.62;1911358;72;85590;-76
2022/01/29 05:09:07;;;;;;;57.83;54.03;;;;;;;11.60;100.00;102986.36;1980188;70;39626;-73
2022/01/29 05:15:06;;;;;;;59.23;55.33;;;;;;;11.65;100.00;102988.73;1825420;76;86411;-73
2022/01/29 05:26:53;;;;;;;57.57;53.67;;;;;;;11.57;100.00;102980.74;1876541;74;86102;-72
2022/01/29 05:32:36;;;;;;;59.37;55.47;;;;;;;11.58;100.00;102977.42;1898232;73;86477;-73
2022/01/29 05:38:22;;;;;;;57.20;53.40;;;;;;;11.52;100.00;102976.44;1914055;73;86326;-74
2022/01/29 05:44:10;;;;;;;59.80;55.83;;;;;;;11.54;100.00;102969.25;1979368;70;39468;-74
2022/01/29 05:49:54;;;;;;;58.73;54.83;;;;;;;11.48;100.00;102956.28;1839726;76;86366;-76
2022/01/29 05:55:41;;;;;;;60.60;56.70;;;;;;;11.52;100.00;102961.67;1802705;78;86460;-76
2022/01/29 06:01:25;;;;;;;60.20;56.23;;;;;;;11.49;100.00;102947.70;1922992;73;86409;-72
2022/01/29 06:07:08;;;;;;;59.30;55.40;;;;;;;11.43;100.00;102955.61;1979605;71;39663;-74
2022/01/29 06:13:01;;;;;;;56.73;52.93;;;;;;;11.44;100.00;102940.61;1888055;74;86099;-74
2022/01/29 06:18:45;;;;;;;59.57;55.67;;;;;;;11.34;100.00;102931.99;1877551;75;85924;-76
2022/01/29 06:24:30;;;;;;;60.70;56.70;;;;;;;11.30;100.00;102927.45;1868089;75;85718;-74
2022/01/29 06:30:15;;;;;;;58.97;54.97;;;;;;;11.28;100.00;102919.06;1916868;74;86630;-73
2022/01/29 06:36:00;;;;;;;57.63;53.63;;;;;;;11.23;100.00;102929.52;1987058;71;40424;-73
2022/01/29 06:41:45;;;;;;;58.83;54.83;;;;;;;11.15;100.00;102927.62;1889632;74;86173;-75
2022/01/29 06:47:29;;;;;;;58.60;54.70;;;;;;;11.14;100.00;102923.98;1882720;73;86414;-71
2022/01/29 06:53:14;;;;;;;62.33;58.23;;;;;;;11.13;100.00;102926.99;1932303;73;85618;-74
2022/01/29 06:58:58;;;;;;;61.40;57.50;;;;;;;11.24;100.00;102927.58;1891142;74;86224;-74
2022/01/29 07:04:43;;;;;;;59.13;55.30;;;;;;;11.31;100.00;102921.36;1799562;78;86336;-74
2022/01/29 07:10:30;;;;;;;59.30;55.50;;;;;;;11.27;100.00;102915.97;1915159;74;86345;-74
2022/01/29 07:16:15;;;;;;;61.73;57.93;;;;;;;11.31;100.00;102914.39;1900800;73;85447;-76
2022/01/29 07:22:01;;;;;;;59.33;55.50;;;;;;;11.32;100.00;102932.80;1963629;71;39583;-73
2022/01/29 07:27:45;;;;;;;60.40;56.30;;;;;;;11.31;100.00;102937.51;1889984;74;86193;-73
2022/01/29 07:33:30;;;;;;;61.70;57.83;;;;;;;11.30;100.00;102931.63;1867391;75;86040;-77
2022/01/29 07:39:14;;;;;;;58.20;54.50;;;;;;;11.33;100.00;102934.50;1913119;73;86725;-73
2022/01/29 07:44:59;;;;;;;58.30;54.70;;;;;;;11.32;100.00;102927.23;1980810;71;39452;-73
2022/01/29 07:53:57;;;;;;;58.80;55.00;;;;;;;11.32;100.00;102914.17;1796295;78;85896;-75
2022/01/29 07:59:41;;;;;;;60.27;56.47;;;;;;;11.26;100.00;102906.77;1798858;78;86333;-73
2022/01/29 08:05:26;;;;;;;57.30;53.70;;;;;;;11.37;100.00;102926.83;1900358;73;86235;-73
2022/01/29 08:11:11;;;;;;;56.67;53.07;;;;;;;11.38;100.00;102929.88;1920143;71;39608;-74
2022/01/29 08:16:55;;;;;;;59.13;55.53;;;;;;;11.36;100.00;102934.01;1837399;76;86198;-74
2022/01/29 08:22:39;;;;;;;59.10;55.40;;;;;;;11.41;100.00;102945.27;1837563;76;86362;-74
2022/01/29 08:28:26;;;;;;;58.73;55.13;;;;;;;11.41;100.00;102948.91;1923568;72;86231;-74
2022/01/29 08:34:10;;;;;;;57.37;53.77;;;;;;;11.36;100.00;102944.59;1975084;71;39615;-76
2022/01/29 08:39:54;;;;;;;57.13;53.60;;;;;;;11.48;100.00;102941.82;1826342;76;86323;-73
2022/01/29 08:45:40;;;;;;;59.70;56.10;;;;;;;11.57;100.00;102954.84;1896500;73;86131;-75
2022/01/29 08:51:24;;;;;;;60.20;56.60;;;;;;;11.61;100.00;102952.73;1932648;73;86698;-74
2022/01/29 08:57:08;;;;;;;55.90;52.50;;;;;;;11.75;100.00;102948.66;1986216;71;39552;-74
2022/01/29 09:02:53;;;;;;;56.70;53.20;;;;;;;11.77;100.00;102935.33;1906108;74;86322;-72
2022/01/29 09:08:36;;;;;;;61.00;57.30;;;;;;;11.84;100.00;102931.05;1899551;73;86242;-73
2022/01/29 09:14:19;;;;;;;61.20;57.60;;;;;;;11.89;100.00;102921.42;1924462;73;85939;-74
2022/01/29 09:20:04;;;;;;;60.07;56.37;;;;;;;11.93;100.00;102910.63;1981311;71;39679;-76
2022/01/29 09:25:48;;;;;;;63.63;59.97;;;;;;;11.99;100.00;102908.24;1836991;76;86066;-75
2022/01/29 09:31:33;;;;;;;58.00;54.43;;;;;;;11.99;100.00;102904.06;1886537;75;86601;-73
2022/01/29 09:37:22;;;;;;;53.23;49.73;;;;;;;11.78;100.00;102858.21;1911351;73;86580;-74
2022/01/29 09:43:08;;;;;;;61.10;57.50;;;;;;;12.20;100.00;102900.09;1984091;71;39639;-74
2022/01/29 09:48:55;;;;;;;60.27;56.57;;;;;;;12.22;100.00;102885.92;1907551;74;86166;-74
2022/01/29 09:54:40;;;;;;;62.30;58.60;;;;;;;12.33;100.00;102875.27;1826581;76;86170;-74
2022/01/29 10:00:24;;;;;;;62.77;59.07;;;;;;;12.30;100.00;102867.41;1923531;73;86114;-73
2022/01/29 10:06:30;;;;;;;60.90;57.30;;;;;;;12.35;100.00;102873.09;1880713;75;86391;-72
2022/01/29 10:12:20;;;;;;;63.67;59.97;;;;;;;12.33;100.00;102871.09;1914362;74;86519;-73
2022/01/29 10:18:06;;;;;;;60.77;57.23;;;;;;;12.50;100.00;102865.56;1983649;71;39869;-75
2022/01/29 10:23:52;;;;;;;57.70;54.40;;;;;;;12.53;100.00;102867.88;1848394;76;87462;-76
2022/01/29 10:29:44;;;;;;;57.37;54.07;;;;;;;12.69;100.00;102887.98;1796632;78;86220;-76
2022/01/29 10:32:17;;;;;;;56.77;53.47;;;;;;;12.63;100.00;102887.56;1758441;78;938220;-74
2022/01/29 10:34:51;;;;;;;58.77;55.17;;;;;;;12.70;100.00;102895.25;1751960;79;941029;-77
2022/01/29 10:40:38;;;;;;;55.00;52.00;;;;;;;12.91;100.00;102898.72;1886479;73;86552;-76
2022/01/29 10:46:33;;;;;;;58.73;55.33;;;;;;;12.86;100.00;102886.62;1910734;74;85125;-75
2022/01/29 10:52:19;;;;;;;58.70;55.40;;;;;;;12.98;100.00;102891.03;1870100;76;86641;-75
2022/01/29 10:58:22;;;;;;;56.43;53.33;;;;;;;13.21;100.00;102878.36;1985961;71;39554;-74
2022/01/29 11:04:28;;;;;;;54.27;51.27;;;;;;;13.32;100.00;102848.66;1890907;74;86056;-73
2022/01/29 11:10:12;;;;;;;56.70;53.60;;;;;;;13.39;100.00;102833.95;1928790;71;39636;-74
2022/01/29 11:15:59;;;;;;;54.00;50.80;;;;;;;13.53;100.00;102821.34;1952549;71;39617;-73
2022/01/29 11:21:47;;;;;;;53.00;49.90;;;;;;;13.52;100.00;102793.70;1898670;74;86326;-71
2022/01/29 11:27:35;;;;;;;52.10;49.20;;;;;;;13.54;100.00;102782.55;1882466;75;85462;-72
2022/01/29 11:33:21;;;;;;;51.57;48.67;;;;;;;13.53;100.00;102793.97;1909599;73;86326;-77
2022/01/29 11:39:21;;;;;;;50.70;48.00;;;;;;;13.41;100.00;102782.07;1977290;70;39582;-73
2022/01/29 11:45:49;;;;;;;51.17;48.17;;;;;;;13.52;100.00;102767.98;1901748;72;86359;-75
2022/01/29 11:52:00;;;;;;;51.93;49.13;;;;;;;13.57;100.00;102755.49;1977500;71;40318;-72
2022/01/29 11:58:23;;;;;;;52.27;49.37;;;;;;;13.42;100.00;102753.06;1854204;76;86380;-76
2022/01/29 12:04:09;;;;;;;51.37;48.47;;;;;;;13.37;100.00;102718.09;1893567;72;39669;-75
2022/01/29 12:09:54;;;;;;;53.83;50.83;;;;;;;13.47;100.00;102725.21;1972111;72;85986;-76
2022/01/29 12:15:40;;;;;;;52.80;49.80;;;;;;;13.55;100.00;102727.55;1825027;76;86507;-78
2022/01/29 12:21:46;;;;;;;55.27;52.27;;;;;;;13.51;100.00;102750.11;1883960;75;86780;-71
2022/01/29 12:27:48;;;;;;;55.50;52.33;;;;;;;13.55;100.00;102738.17;1885459;74;86077;-76
2022/01/29 12:33:36;;;;;;;54.07;50.87;;;;;;;13.68;100.00;102718.23;1868572;75;86303;-72
2022/01/29 12:39:26;;;;;;;55.33;52.10;;;;;;;13.67;100.00;102724.06;1870573;76;86312;-76
2022/01/29 12:45:14;;;;;;;55.53;52.33;;;;;;;13.83;100.00;102693.81;1918753;72;86209;-73
2022/01/29 12:51:07;;;;;;;52.57;49.67;;;;;;;13.91;100.00;102681.31;1931975;72;86392;-75
2022/01/29 12:56:54;;;;;;;54.40;51.33;;;;;;;13.86;100.00;102675.70;1910080;74;85623;-73
2022/01/29 13:02:39;;;;;;;56.70;53.67;;;;;;;13.85;100.00;102693.56;1889095;74;86352;-75
2022/01/29 13:08:26;;;;;;;61.83;58.33;;;;;;;13.58;100.00;102691.56;1917722;72;86345;-75
2022/01/29 13:14:16;;;;;;;60.70;57.30;;;;;;;13.44;100.00;102679.09;1983210;71;39631;-72
2022/01/29 13:20:01;;;;;;;60.93;57.53;;;;;;;13.42;100.00;102667.91;1986767;71;39709;-75
2022/01/29 13:25:45;;;;;;;62.20;58.63;;;;;;;13.39;100.00;102668.44;1902537;74;86593;-72
2022/01/29 13:31:31;;;;;;;61.80;58.30;;;;;;;13.59;100.00;102658.36;1873283;74;86562;-75
2022/01/29 13:40:51;;;;;;;59.10;55.70;;;;;;;13.44;100.00;102692.20;1814644;76;86412;-75
2022/01/29 13:46:49;;;;;;;59.00;55.60;;;;;;;13.48;100.00;102676.08;1836323;76;86596;-71
2022/01/29 13:52:58;;;;;;;61.40;58.00;;;;;;;13.42;100.00;102698.62;1897032;74;86370;-74
2022/01/29 13:58:57;;;;;;;58.07;54.53;;;;;;;13.39;100.00;102660.06;1877844;75;86508;-72
2022/01/29 14:05:05;;;;;;;62.57;58.67;;;;;;;13.49;100.00;102679.17;1976449;71;86501;-72
2022/01/29 14:10:58;;;;;;;62.87;59.07;;;;;;;13.54;100.00;102690.41;1841443;76;85995;-73
2022/01/29 14:16:45;;;;;;;63.97;60.27;;;;;;;13.69;100.00;102679.98;1882527;74;86219;-76
2022/01/29 14:22:31;;;;;;;61.97;58.27;;;;;;;13.73;100.00;102681.70;1896673;73;86363;-72
2022/01/29 14:28:22;;;;;;;62.00;58.50;;;;;;;13.85;100.00;102702.78;1910046;74;85508;-71
2022/01/29 14:34:07;;;;;;;60.47;56.80;;;;;;;13.98;100.00;102706.56;1920424;71;39723;-72
2022/01/29 14:39:52;;;;;;;60.53;57.03;;;;;;;14.00;100.00;102699.30;1826694;76;86474;-76
2022/01/29 14:45:36;;;;;;;57.87;54.47;;;;;;;13.83;100.00;102690.17;1871180;75;86524;-71
2022/01/29 14:51:22;;;;;;;63.27;59.37;;;;;;;13.73;100.00;102695.66;1917461;74;85375;-71
2022/01/29 14:57:08;;;;;;;60.00;56.50;;;;;;;13.46;100.00;102671.32;1945172;71;39767;-75
2022/01/29 15:02:53;;;;;;;62.00;58.27;;;;;;;13.63;100.00;102704.20;1906066;74;86169;-72
2022/01/29 15:08:36;;;;;;;62.93;58.93;;;;;;;13.51;100.00;102720.80;1883639;74;86452;-72
2022/01/29 15:14:23;;;;;;;63.80;59.87;;;;;;;13.38;100.00;102720.63;1909571;74;86189;-73
2022/01/29 15:20:10;;;;;;;60.33;56.50;;;;;;;13.39;100.00;102729.27;1969085;71;39522;-74
2022/01/29 15:25:54;;;;;;;59.53;55.73;;;;;;;13.54;100.00;102737.88;1836307;76;86699;-72
2022/01/29 15:31:39;;;;;;;60.13;56.13;;;;;;;13.46;100.00;102722.97;1883131;74;86071;-72
2022/01/29 15:37:24;;;;;;;59.77;56.10;;;;;;;13.49;100.00;102736.41;1907998;73;85410;-73
2022/01/29 15:43:08;;;;;;;56.67;53.13;;;;;;;13.61;100.00;102739.91;1986949;71;39520;-71
2022/01/29 15:48:53;;;;;;;59.40;55.80;;;;;;;13.43;100.00;102754.20;1893438;74;85569;-71
2022/01/29 15:54:37;;;;;;;58.27;54.73;;;;;;;13.31;100.00;102771.59;1874895;74;86401;-72
2022/01/29 16:00:23;;;;;;;62.33;58.53;;;;;;;13.30;100.00;102776.91;1937025;73;86467;-75
2022/01/29 16:06:06;;;;;;;63.77;59.97;;;;;;;13.29;100.00;102784.98;1976726;71;39753;-73
2022/01/29 16:11:50;;;;;;;60.90;57.10;;;;;;;13.34;100.00;102801.81;1841462;75;86475;-73
2022/01/29 16:17:35;;;;;;;64.40;60.50;;;;;;;13.34;100.00;102800.41;1884317;74;85819;-71
2022/01/29 16:23:23;;;;;;;58.97;55.30;;;;;;;13.35;100.00;102823.59;1912033;74;86595;-77
2022/01/29 16:29:08;;;;;;;63.27;59.57;;;;;;;13.21;100.00;102835.11;1921355;71;39560;-72
2022/01/29 16:34:55;;;;;;;62.70;58.90;;;;;;;13.21;100.00;102838.44;1826306;76;86750;-72
2022/01/29 16:43:46;;;;;;;66.40;62.60;;;;;;;13.22;100.00;102858.28;1966199;72;86627;-73
2022/01/29 16:46:16;;;;;;;66.60;62.50;;;;;;;13.11;100.00;102866.17;1899408;73;938788;-73
2022/01/29 16:52:02;;;;;;;61.87;58.07;;;;;;;13.09;100.00;102859.98;1924593;71;40110;-75
2022/01/29 16:57:47;;;;;;;61.87;57.87;;;;;;;13.07;100.00;102885.33;1852083;75;86204;-75
2022/01/29 17:03:31;;;;;;;57.33;53.57;;;;;;;13.14;100.00;102913.09;1920658;72;85997;-75
2022/01/29 17:09:15;;;;;;;42.70;40.27;;;;;;;12.89;100.00;102939.95;1915087;74;86303;-72
2022/01/29 17:15:00;;;;;;;32.53;30.40;;;;;;;12.82;100.00;102930.05;1925516;71;39728;-75
2022/01/29 17:20:47;;;;;;;22.63;20.60;;;;;;;12.70;100.00;102930.97;1889131;74;86214;-76
2022/01/29 17:26:31;;;;;;;22.00;20.03;;;;;;;12.54;100.00;102922.52;1871628;75;85874;-75
2022/01/29 17:32:16;;;;;;;22.10;20.10;;;;;;;12.18;100.00;102906.47;1914181;72;86101;-75
2022/01/29 17:38:00;;;;;;;20.43;18.53;;;;;;;12.08;100.00;102928.52;1934083;71;39477;-73
2022/01/29 17:43:44;;;;;;;22.20;20.07;;;;;;;12.04;100.00;102941.25;1882989;74;85493;-71
2022/01/29 17:49:29;;;;;;;20.23;18.33;;;;;;;11.88;100.00;102953.14;1839240;76;85884;-73
2022/01/29 17:55:13;;;;;;;21.17;19.30;;;;;;;11.78;100.00;102952.88;1944071;72;85496;-76
2022/01/29 18:00:58;;;;;;;21.40;19.67;;;;;;;11.70;100.00;102969.38;1796982;78;86073;-74
2022/01/29 18:06:42;;;;;;;21.20;19.33;;;;;;;11.59;100.00;102991.11;1803191;78;86347;-75
2022/01/29 18:15:32;;;;;;;24.40;21.93;;;;;;;11.26;100.00;103017.20;1887100;74;86243;-74
2022/01/29 18:18:03;;;;;;;24.10;21.77;;;;;;;11.16;100.00;103026.14;1830764;75;937841;-74
2022/01/29 18:20:33;;;;;;;22.63;20.97;;;;;;;11.07;100.00;103026.17;1847928;76;937993;-75
2022/01/29 18:23:03;;;;;;;24.30;22.40;;;;;;;11.08;100.00;103026.45;1829174;77;939567;-74
2022/01/29 18:25:34;;;;;;;26.57;24.03;;;;;;;10.89;100.00;103036.78;1854363;76;937772;-75
2022/01/29 18:28:13;;;;;;;26.27;24.12;;;;;;;10.74;100.00;103036.89;1798623;77;939872;-73
2022/01/29 18:30:38;;;;;;;28.33;25.77;;;;;;;10.62;100.00;103034.02;1805501;76;937661;-75
2022/01/29 18:33:09;;;;;;;28.45;25.77;;;;;;;10.53;100.00;103043.74;1827777;76;940003;-74
2022/01/29 18:38:54;;;;;;;29.57;26.97;;;;;;;10.47;100.00;103058.58;1841064;76;86539;-74
2022/01/29 18:44:39;;;;;;;31.63;29.33;;;;;;;10.36;100.00;103098.22;1872883;75;86341;-77
2022/01/29 18:50:23;;;;;;;34.63;31.83;;;;;;;10.16;100.00;103130.90;1921468;74;86314;-74
2022/01/29 18:56:10;;;;;;;34.67;31.40;;;;;;;9.90;100.00;103113.36;1983588;71;40227;-74
2022/01/29 19:01:54;;;;;;;33.20;30.47;;;;;;;9.77;100.00;103073.73;1849589;76;86524;-74
2022/01/29 19:07:42;;;;;;;35.07;31.80;;;;;;;9.90;100.00;103093.06;1903301;74;85621;-71
2022/01/29 19:13:27;;;;;;;34.37;31.67;;;;;;;9.85;100.00;103141.47;1932812;72;86539;-76
2022/01/29 19:19:13;;;;;;;38.60;35.47;;;;;;;9.81;100.00;103177.69;1974905;71;39891;-74
2022/01/29 19:24:58;;;;;;;37.00;33.57;;;;;;;9.28;100.00;103184.08;1794803;78;85994;-73
2022/01/29 19:30:42;;;;;;;34.27;31.13;;;;;;;9.54;100.00;103164.53;1809251;78;85996;-73
2022/01/29 19:36:27;;;;;;;31.57;29.17;;;;;;;9.95;100.00;103140.44;1924131;73;86342;-73
2022/01/29 19:42:14;;;;;;;31.57;28.83;;;;;;;9.95;100.00;103144.61;1973659;71;39648;-72
2022/01/29 19:47:59;;;;;;;32.00;29.03;;;;;;;9.92;100.00;103165.36;1892290;74;86365;-75
2022/01/29 19:53:43;;;;;;;32.47;29.53;;;;;;;9.59;100.00;103164.16;1883205;74;86061;-77
2022/01/29 19:59:28;;;;;;;31.93;29.27;;;;;;;9.56;100.00;103179.02;1902867;72;86576;-75
2022/01/29 20:05:12;;;;;;;34.50;31.17;;;;;;;9.62;100.00;103203.13;1935900;71;39571;-72
2022/01/29 20:10:57;;;;;;;36.03;32.67;;;;;;;9.44;100.00;103184.42;1802977;78;86455;-72
2022/01/29 20:16:42;;;;;;;35.60;32.00;;;;;;;9.34;100.00;103183.18;1826152;75;85566;-77
2022/01/29 20:22:26;;;;;;;36.87;34.00;;;;;;;9.45;100.00;103197.77;1920819;71;86178;-75
2022/01/29 20:28:10;;;;;;;37.77;34.30;;;;;;;9.40;100.00;103199.81;1954076;71;39797;-74
2022/01/29 20:33:57;;;;;;;40.43;37.23;;;;;;;9.36;100.00;103217.97;1810530;78;86544;-75
2022/01/29 20:39:41;;;;;;;42.83;39.20;;;;;;;9.09;100.00;103229.68;1798481;77;86336;-74
2022/01/29 20:45:25;;;;;;;48.20;44.10;;;;;;;9.04;100.00;103233.63;1911848;72;86291;-74
2022/01/29 20:51:10;;;;;;;43.00;39.43;;;;;;;9.02;100.00;103246.87;1927378;70;40338;-75
2022/01/29 20:56:54;;;;;;;44.60;41.00;;;;;;;8.97;100.00;103232.81;1833090;76;86298;-74
2022/01/29 21:02:39;;;;;;;42.70;39.23;;;;;;;8.90;100.00;103227.79;1914361;74;86543;-75
2022/01/29 21:08:23;;;;;;;42.77;39.13;;;;;;;8.93;100.00;103221.83;1927728;73;86718;-76
2022/01/29 21:14:08;;;;;;;40.70;36.87;;;;;;;8.89;100.00;103243.27;1975623;71;39695;-73
2022/01/29 21:19:53;;;;;;;43.83;40.27;;;;;;;8.92;100.00;103267.77;1906387;73;86403;-72
2022/01/29 21:25:40;;;;;;;46.57;42.90;;;;;;;8.62;100.00;103264.60;1872547;74;86710;-76
2022/01/29 21:31:24;;;;;;;48.57;44.90;;;;;;;8.50;100.00;103274.63;1911473;74;85425;-72
2022/01/29 21:37:09;;;;;;;56.30;52.40;;;;;;;8.19;100.00;103278.81;1973714;71;39528;-73
2022/01/29 21:42:56;;;;;;;56.27;52.27;;;;;;;7.81;100.00;103290.63;1950919;72;86550;-73
2022/01/29 21:48:41;;;;;;;52.80;48.57;;;;;;;8.23;100.00;103270.41;1806960;78;86252;-73
2022/01/29 21:54:27;;;;;;;53.57;49.93;;;;;;;8.16;100.00;103271.47;1923435;72;85835;-72
2022/01/29 22:00:13;;;;;;;56.90;52.90;;;;;;;7.81;100.00;103299.78;1941501;73;86293;-71
2022/01/29 22:05:56;;;;;;;60.33;55.67;;;;;;;7.40;100.00;103303.11;1847242;77;85717;-75
2022/01/29 22:11:42;;;;;;;62.20;57.93;;;;;;;7.57;100.00;103306.69;1798948;78;86390;-72
2022/01/29 22:17:26;;;;;;;65.13;60.23;;;;;;;6.82;100.00;103313.03;1909766;72;86562;-72
2022/01/29 22:23:10;;;;;;;62.53;57.70;;;;;;;6.70;100.00;103324.30;1980151;71;39588;-71
2022/01/29 22:28:56;;;;;;;65.37;60.60;;;;;;;6.93;100.00;103321.83;1827512;76;86176;-71
2022/01/29 22:34:41;;;;;;;65.83;61.30;;;;;;;6.95;100.00;103354.24;1809276;78;86154;-71
2022/01/29 22:40:26;;;;;;;65.97;61.50;;;;;;;6.64;100.00;103371.17;1936328;72;86022;-71
2022/01/29 22:46:10;;;;;;;64.43;59.93;;;;;;;6.52;100.00;103363.09;1933023;71;39497;-72
2022/01/29 22:51:54;;;;;;;62.87;58.23;;;;;;;7.01;100.00;103340.50;1843401;76;86269;-76
2022/01/29 22:57:40;;;;;;;62.00;57.87;;;;;;;7.22;100.00;103366.70;1870320;75;86354;-73
2022/01/29 23:03:26;;;;;;;58.13;54.30;;;;;;;7.31;100.00;103361.87;1958081;72;86036;-70
2022/01/29 23:09:13;;;;;;;60.80;56.40;;;;;;;6.98;100.00;103336.73;1985588;71;39569;-75
2022/01/29 23:14:57;;;;;;;65.73;61.40;;;;;;;6.42;100.00;103367.55;1843181;76;85652;-73
2022/01/29 23:20:51;;;;;;;57.20;53.20;;;;;;;6.82;100.00;103315.79;1799232;78;85535;-72
2022/01/29 23:26:41;;;;;;;56.10;52.80;;;;;;;7.32;100.00;103327.61;1877243;74;86315;-71
2022/01/29 23:32:19;;;;;;;53.20;49.67;;;;;;;7.24;100.00;103307.90;1880564;73;86438;-73
2022/01/29 23:38:03;;;;;;;53.17;49.57;;;;;;;7.58;100.00;103319.99;1925717;71;39744;-75
2022/01/29 23:43:52;;;;;;;57.13;53.43;;;;;;;7.28;100.00;103295.90;1824783;76;85547;-73
2022/01/29 23:49:34;;;;;;;55.70;52.27;;;;;;;7.24;100.00;103316.72;1884828;74;86042;-75
2022/01/29 23:55:19;;;;;;;58.93;55.00;;;;;;;7.22;100.00;103324.38;1912211;73;85893;-72
